This is the latest recevied weather packets stored in our database for station/object HS1WDC-1. If no packets are shown the sender has not sent any weather packets the latest 10 day(s).
| Time | Temp. | Humidity | Pressure | Rain* | Wind** | Luminosity | Snow |
|---|---|---|---|---|---|---|---|
| 1777907869 | 35.56° C | 57% | 1010 hPa | - | - | 0 W/m² | - |
| 1777906944 | 35° C | 57% | 1010 hPa | - | - | 0 W/m² | - |
| 1777906020 | 35.56° C | 55% | 1010 hPa | - | - | 0 W/m² | - |
| 1777905096 | 35.56° C | 55% | 1009 hPa | - | - | 0 W/m² | - |
| 1777900474 | 36.67° C | 50% | 1008 hPa | - | - | 0 W/m² | - |
| 1777899550 | 36.67° C | 50% | 1007 hPa | - | - | 0 W/m² | - |
| 1777898626 | 37.22° C | 50% | 1007 hPa | - | - | 0 W/m² | - |
| 1777897701 | 37.22° C | 49% | 1007 hPa | - | - | 0 W/m² | - |
| 1777896777 | 37.78° C | 45% | 1006 hPa | - | - | 0 W/m² | - |
| 1777895853 | 37.78° C | 46% | 1006 hPa | - | - | 0 W/m² | - |
| 1777894004 | 38.33° C | 44% | 1006 hPa | - | - | 0 W/m² | - |
| 1777893080 | 38.89° C | 42% | 1006 hPa | - | - | 0 W/m² | - |
| 1777892155 | 39.44° C | 42% | 1005 hPa | - | - | 0 W/m² | - |
| 1777889383 | 40.56° C | 42% | 1004 hPa | - | - | 0 W/m² | - |
| 1777888458 | 41.11° C | 41% | 1004 hPa | - | - | 0 W/m² | - |
| 1777887534 | 41.67° C | 39% | 1004 hPa | - | - | 0 W/m² | - |
| 1777886609 | 41.67° C | 38% | 1004 hPa | - | - | 0 W/m² | - |
| 1777885685 | 41.67° C | 39% | 1004 hPa | - | - | 0 W/m² | - |
| 1777884761 | 41.67° C | 39% | 1004 hPa | - | - | 0 W/m² | - |
| 1777883837 | 41.67° C | 40% | 1005 hPa | - | - | 0 W/m² | - |
| 1777882912 | 42.22° C | 39% | 1005 hPa | - | - | 0 W/m² | - |
| 1777881988 | 41.67° C | 40% | 1005 hPa | - | - | 0 W/m² | - |
| 1777881064 | 41.11° C | 41% | 1005 hPa | - | - | 0 W/m² | - |
| 1777880140 | 41.11° C | 42% | 1006 hPa | - | - | 0 W/m² | - |
| 1777879215 | 41.11° C | 42% | 1006 hPa | - | - | 0 W/m² | - |
* Rain since midnight (hover to see other rain measurements)
** Current wind speed in m/s (hover to see current wind gust speed)